Time;durP1;ratioP1;P1;durP2;ratioP2;P2;SDS_P1;SDS_P2;PMS_P1;PMS_P2;Temp;Humidity;BMP_temperature;BMP_pressure;BME280_temperature;BME280_humidity;BME280_pressure;Samples;Min_cycle;Max_cycle;Signal;HPM_P1;HPM_P2
2022/08/26 04:01:11;;;;;;;16.87;11.30;;;15.70;96.30;;;;;;5605745;23;20508;-79
2022/08/26 04:06:21;;;;;;;22.13;11.63;;;15.50;96.30;;;;;;4968982;28;20425;-78
2022/08/26 04:08:47;;;;;;;32.53;12.00;;;15.40;96.30;;;;;;4972903;28;20410;-78
2022/08/26 04:11:21;;;;;;;14.30;10.70;;;15.30;96.30;;;;;;4954063;28;20285;-78
2022/08/26 04:13:47;;;;;;;23.70;12.50;;;15.30;96.30;;;;;;4953963;28;20214;-78
2022/08/26 04:16:15;;;;;;;12.60;11.07;;;15.20;96.30;;;;;;4956174;29;20411;-76
2022/08/26 04:18:41;;;;;;;19.27;11.07;;;15.20;96.30;;;;;;4939196;29;20415;-79
2022/08/26 04:21:07;;;;;;;13.50;11.40;;;15.30;96.30;;;;;;4940714;29;20846;-81
2022/08/26 04:23:33;;;;;;;20.70;12.40;;;15.30;96.30;;;;;;4954779;29;20221;-77
2022/08/26 04:26:00;;;;;;;15.47;11.33;;;15.20;96.30;;;;;;4954471;29;20446;-78
2022/08/26 04:28:27;;;;;;;28.50;12.70;;;15.20;96.30;;;;;;4954280;29;20419;-76
2022/08/26 05:00:12;;;;;;;19.40;12.23;;;16.40;96.30;;;;;;4985742;28;20452;-79
2022/08/26 05:02:38;;;;;;;20.40;12.40;;;16.50;96.30;;;;;;4966637;28;20499;-77
2022/08/26 05:05:05;;;;;;;18.53;11.87;;;16.60;96.30;;;;;;4928662;28;20466;-77
2022/08/26 05:07:31;;;;;;;17.10;11.00;;;16.70;96.30;;;;;;4956829;28;20423;-79
2022/08/26 05:09:57;;;;;;;22.27;11.00;;;16.80;96.30;;;;;;4960422;28;20422;-79
2022/08/26 05:12:22;;;;;;;18.93;11.17;;;17.00;96.30;;;;;;4962466;28;20453;-78
2022/08/26 05:14:48;;;;;;;18.93;10.93;;;17.20;96.30;;;;;;4941527;28;20239;-79
2022/08/26 05:17:13;;;;;;;19.47;10.57;;;17.40;96.30;;;;;;4964717;28;20179;-79
2022/08/26 05:19:39;;;;;;;19.93;10.07;;;17.60;96.30;;;;;;4929141;28;20213;-77
2022/08/26 05:22:05;;;;;;;20.77;10.20;;;17.70;96.30;;;;;;4964597;28;20213;-78
2022/08/26 05:24:30;;;;;;;14.67;9.63;;;17.80;96.30;;;;;;4949705;28;20213;-78
2022/08/26 05:26:56;;;;;;;17.90;10.80;;;18.10;96.30;;;;;;4962464;28;20424;-78
2022/08/26 05:29:22;;;;;;;11.73;9.87;;;18.40;96.30;;;;;;4962712;28;20233;-77
2022/08/26 05:31:50;;;;;;;17.50;11.50;;;19.10;96.30;;;;;;4966427;28;20207;-84
2022/08/26 05:34:16;;;;;;;14.67;9.50;;;20.10;96.30;;;;;;4961569;28;20462;-80
2022/08/26 05:36:41;;;;;;;14.77;9.73;;;21.00;96.30;;;;;;4970715;28;20417;-80
2022/08/26 05:39:07;;;;;;;14.93;9.20;;;22.10;96.30;;;;;;4990265;28;20174;-77
2022/08/26 05:41:36;;;;;;;10.93;8.50;;;22.90;96.30;;;;;;4962638;28;20190;-76
2022/08/26 05:44:04;;;;;;;13.13;8.27;;;23.60;96.30;;;;;;4955767;28;20643;-79
2022/08/26 05:46:30;;;;;;;11.07;7.33;;;24.10;96.30;;;;;;4956263;29;20421;-77
2022/08/26 05:48:56;;;;;;;10.40;7.13;;;24.40;96.30;;;;;;4939116;29;20418;-83
2022/08/26 05:51:22;;;;;;;15.50;7.47;;;25.30;96.30;;;;;;4956634;29;20222;-80
2022/08/26 05:53:48;;;;;;;14.40;7.63;;;25.80;96.30;;;;;;4956403;29;20516;-76
2022/08/26 05:56:14;;;;;;;12.77;7.47;;;26.40;96.30;;;;;;4956502;29;20716;-77
2022/08/26 05:58:41;;;;;;;17.17;8.20;;;26.70;96.30;;;;;;4956282;29;20194;-81
2022/08/26 06:01:13;;;;;;;14.73;7.40;;;27.00;96.30;;;;;;4956224;29;20450;-77
2022/08/26 06:03:45;;;;;;;15.20;7.80;;;27.30;96.30;;;;;;4939145;29;20565;-78
2022/08/26 06:06:32;;;;;;;11.13;7.03;;;27.90;96.30;;;;;;4940061;29;20429;-79
2022/08/26 06:08:59;;;;;;;18.47;7.83;;;27.40;96.30;;;;;;4946826;28;20429;-77
2022/08/26 06:11:26;;;;;;;12.90;8.07;;;27.90;96.30;;;;;;4959047;28;20449;-77
2022/08/26 06:13:53;;;;;;;14.67;7.97;;;29.00;96.30;;;;;;4940401;29;20457;-75
2022/08/26 06:16:22;;;;;;;14.17;7.83;;;29.60;96.30;;;;;;4956921;29;20414;-79
2022/08/26 06:18:49;;;;;;;20.47;8.20;;;28.50;96.30;;;;;;4956150;29;20411;-75
2022/08/26 06:21:22;;;;;;;16.63;7.50;;;28.90;96.30;;;;;;4939712;29;20513;-73
2022/08/26 06:26:34;;;;;;;11.35;7.10;;;29.40;96.30;;;;;;4956921;29;20585;-78
2022/08/26 06:29:00;;;;;;;16.70;7.60;;;29.50;96.30;;;;;;4956092;29;20179;-75
2022/08/26 06:31:26;;;;;;;30.80;7.28;;;30.10;95.80;;;;;;4956289;29;20190;-76
2022/08/26 06:33:52;;;;;;;9.05;6.70;;;30.80;94.10;;;;;;4956444;29;20205;-77
2022/08/26 06:36:24;;;;;;;14.20;6.80;;;30.50;94.60;;;;;;4956486;29;20171;-76
2022/08/26 06:38:51;;;;;;;13.43;6.55;;;31.50;91.70;;;;;;4955882;29;20627;-77
2022/08/26 06:41:19;;;;;;;16.17;7.88;;;30.80;92.70;;;;;;4967039;28;20566;-75
2022/08/26 06:43:45;;;;;;;11.20;7.30;;;30.90;93.50;;;;;;4972182;28;20181;-76
2022/08/26 06:46:13;;;;;;;14.75;7.78;;;31.60;90.90;;;;;;4955706;29;20273;-75
2022/08/26 06:48:38;;;;;;;12.82;7.53;;;31.80;90.70;;;;;;4955351;29;20198;-75
2022/08/26 06:51:13;;;;;;;17.73;6.60;;;31.80;89.70;;;;;;4955546;29;20626;-76
2022/08/26 06:53:41;;;;;;;11.20;7.05;;;31.90;89.60;;;;;;4938116;29;20193;-75
2022/08/26 06:56:09;;;;;;;13.57;7.80;;;31.80;89.90;;;;;;4954563;28;20553;-76
2022/08/26 06:58:36;;;;;;;19.87;7.93;;;31.40;91.50;;;;;;4955226;29;20247;-76
2022/08/26 07:01:03;;;;;;;17.13;7.57;;;31.40;91.30;;;;;;4955263;29;20461;-75
2022/08/26 07:03:28;;;;;;;23.90;7.57;;;30.90;92.70;;;;;;4955362;29;20449;-78
2022/08/26 07:06:00;;;;;;;29.90;10.10;;;30.70;93.40;;;;;;4956525;29;20406;-76
2022/08/26 07:08:26;;;;;;;18.50;8.03;;;30.50;93.80;;;;;;4979708;28;20197;-76
2022/08/26 07:10:52;;;;;;;16.57;9.73;;;30.10;95.80;;;;;;4972662;28;20809;-75
2022/08/26 07:13:17;;;;;;;20.17;8.47;;;30.40;95.40;;;;;;4993190;28;20331;-76
2022/08/26 07:15:43;;;;;;;18.10;8.70;;;30.40;95.70;;;;;;4960337;28;20194;-79
2022/08/26 07:18:08;;;;;;;13.87;8.30;;;30.50;94.20;;;;;;4955272;28;20185;-75
2022/08/26 07:20:39;;;;;;;15.30;8.60;;;30.00;96.30;;;;;;4955249;29;20610;-76
2022/08/26 07:23:06;;;;;;;15.97;8.40;;;29.70;96.30;;;;;;4969506;28;20165;-75
2022/08/26 07:25:32;;;;;;;27.70;8.83;;;30.60;95.50;;;;;;4991625;28;20451;-76
2022/08/26 07:27:57;;;;;;;17.13;7.90;;;31.20;93.10;;;;;;4993290;28;20416;-79
2022/08/26 07:30:23;;;;;;;25.10;8.77;;;30.90;93.30;;;;;;4993441;28;20187;-76
2022/08/26 07:32:48;;;;;;;19.90;7.90;;;30.50;94.80;;;;;;4993611;28;20173;-76
2022/08/26 07:35:14;;;;;;;25.10;8.47;;;29.80;95.40;;;;;;4993422;28;20200;-76
2022/08/26 07:37:40;;;;;;;17.47;8.43;;;29.60;96.30;;;;;;4993257;28;20523;-75
2022/08/26 07:40:06;;;;;;;16.10;8.33;;;29.80;96.30;;;;;;4991360;28;20503;-78
2022/08/26 07:42:33;;;;;;;23.90;8.17;;;29.60;96.30;;;;;;4973842;28;20229;-78
2022/08/26 07:44:58;;;;;;;13.27;7.30;;;29.90;96.30;;;;;;4973944;28;20413;-76
2022/08/26 07:47:24;;;;;;;17.77;7.33;;;30.30;95.90;;;;;;4974020;28;20520;-76
2022/08/26 07:49:49;;;;;;;25.90;7.83;;;30.50;96.30;;;;;;4956507;28;20309;-75
2022/08/26 07:52:15;;;;;;;20.07;7.30;;;31.80;91.70;;;;;;4956505;28;20642;-76
2022/08/26 07:54:40;;;;;;;26.47;7.40;;;32.50;89.70;;;;;;4973816;28;20201;-77
2022/08/26 07:57:06;;;;;;;24.80;7.57;;;31.60;91.00;;;;;;4973826;28;20193;-76
2022/08/26 07:59:32;;;;;;;15.10;6.93;;;32.30;88.90;;;;;;4976172;28;20178;-79
2022/08/26 08:01:58;;;;;;;16.87;5.70;;;31.90;90.40;;;;;;4978089;28;20292;-80
2022/08/26 08:04:24;;;;;;;18.40;6.43;;;31.80;89.50;;;;;;4961850;28;20185;-79
2022/08/26 08:06:49;;;;;;;11.43;5.87;;;32.40;89.70;;;;;;4979059;28;20416;-77
2022/08/26 08:09:16;;;;;;;18.83;6.18;;;33.10;86.00;;;;;;4967032;28;20237;-78
2022/08/26 08:11:42;;;;;;;24.02;7.88;;;33.40;84.90;;;;;;4953877;29;20209;-77
2022/08/26 08:14:08;;;;;;;20.23;6.03;;;33.90;84.50;;;;;;4972332;28;20665;-77
2022/08/26 08:16:33;;;;;;;21.63;6.70;;;34.80;82.50;;;;;;4984986;28;20201;-78
2022/08/26 08:18:59;;;;;;;19.00;5.95;;;33.90;83.00;;;;;;4962196;28;20182;-77
2022/08/26 08:21:25;;;;;;;16.10;6.15;;;33.10;86.20;;;;;;4963628;28;20242;-77
2022/08/26 08:23:53;;;;;;;23.05;6.45;;;33.00;87.50;;;;;;4962635;28;20302;-75
2022/08/26 08:26:19;;;;;;;13.43;6.90;;;32.80;86.60;;;;;;4956656;28;20264;-75
2022/08/26 08:28:45;;;;;;;22.73;7.00;;;33.10;85.70;;;;;;4953059;29;20212;-75
2022/08/26 08:31:28;;;;;;;22.50;6.13;;;32.40;88.60;;;;;;4937125;29;20295;-77
2022/08/26 08:33:54;;;;;;;18.00;6.97;;;32.30;90.00;;;;;;4953794;29;20237;-78
2022/08/26 08:36:20;;;;;;;19.00;6.73;;;32.40;88.30;;;;;;4961634;28;20206;-77
2022/08/26 08:38:45;;;;;;;19.67;6.97;;;32.10;88.90;;;;;;4954604;28;20816;-78
2022/08/26 08:41:39;;;;;;;27.52;7.72;;;33.00;89.30;;;;;;4959613;28;20206;-77
2022/08/26 08:44:11;;;;;;;19.73;6.30;;;33.90;87.40;;;;;;4953942;29;20177;-77
2022/08/26 08:46:38;;;;;;;20.02;5.57;;;35.00;83.80;;;;;;4971451;28;20196;-77
2022/08/26 08:49:04;;;;;;;16.48;6.20;;;35.40;82.70;;;;;;4972835;28;20182;-77
2022/08/26 08:51:52;;;;;;;21.45;6.53;;;35.20;82.20;;;;;;4973109;28;20198;-77
2022/08/26 08:54:18;;;;;;;37.20;7.53;;;34.40;81.20;;;;;;4972264;28;20229;-77
2022/08/26 08:56:51;;;;;;;26.83;6.77;;;33.20;84.70;;;;;;4970821;28;20261;-79
2022/08/26 08:59:23;;;;;;;20.80;6.77;;;33.00;87.60;;;;;;4954026;29;20221;-79
2022/08/26 09:02:18;;;;;;;18.03;6.63;;;32.10;86.70;;;;;;4953777;29;20210;-78
2022/08/26 09:05:06;;;;;;;21.43;6.50;;;31.60;89.20;;;;;;4953677;29;20505;-79
2022/08/26 09:07:47;;;;;;;17.50;6.53;;;32.10;87.40;;;;;;4937174;29;20422;-79
2022/08/26 09:10:33;;;;;;;21.10;6.57;;;32.30;86.40;;;;;;4961296;28;20762;-77
2022/08/26 09:13:01;;;;;;;18.00;7.93;;;32.80;87.10;;;;;;4954458;28;20449;-77
2022/08/26 09:15:41;;;;;;;15.80;5.97;;;33.20;86.80;;;;;;4939702;28;20943;-77
2022/08/26 09:18:25;;;;;;;23.80;6.60;;;31.80;86.90;;;;;;4972149;28;20493;-77
2022/08/26 09:21:04;;;;;;;24.97;7.30;;;32.20;88.40;;;;;;4975635;28;20956;-77
2022/08/26 09:23:33;;;;;;;18.20;6.33;;;32.40;86.00;;;;;;4975550;28;20567;-78
2022/08/26 09:26:17;;;;;;;18.30;7.13;;;32.50;86.50;;;;;;4956656;28;20917;-77
2022/08/26 09:28:55;;;;;;;24.83;6.60;;;31.90;87.80;;;;;;4959987;28;20413;-77
2022/08/26 09:31:28;;;;;;;23.30;7.83;;;31.00;89.70;;;;;;4956336;29;20441;-77
2022/08/26 09:34:14;;;;;;;19.60;6.40;;;30.20;91.40;;;;;;4956982;29;21281;-77
2022/08/26 09:36:50;;;;;;;19.60;7.10;;;29.50;93.60;;;;;;4957404;29;20812;-77
2022/08/26 09:39:36;;;;;;;21.50;5.77;;;29.40;95.60;;;;;;4956611;29;20476;-75
2022/08/26 09:42:11;;;;;;;25.40;5.57;;;29.20;96.00;;;;;;4973981;28;20444;-75
2022/08/26 09:44:56;;;;;;;16.20;6.80;;;30.00;96.30;;;;;;4975976;28;20443;-75
2022/08/26 09:47:31;;;;;;;10.37;5.43;;;30.00;90.30;;;;;;4976265;28;20496;-76
2022/08/26 09:50:24;;;;;;;23.03;7.37;;;29.70;89.90;;;;;;4975525;28;20464;-77
2022/08/26 09:53:13;;;;;;;14.47;5.73;;;29.00;91.40;;;;;;4975765;28;20496;-77
2022/08/26 09:55:42;;;;;;;25.20;5.40;;;29.00;93.50;;;;;;4975652;28;20413;-77
2022/08/26 09:58:12;;;;;;;14.03;5.40;;;29.40;90.40;;;;;;4975350;28;20838;-77
2022/08/26 10:00:41;;;;;;;13.20;5.23;;;29.70;89.90;;;;;;4975453;28;20417;-77
2022/08/26 10:03:10;;;;;;;13.03;6.03;;;29.10;91.90;;;;;;4958396;28;20489;-77
2022/08/26 10:05:44;;;;;;;16.50;4.93;;;28.40;94.50;;;;;;4960085;28;20489;-77
2022/08/26 10:08:39;;;;;;;19.07;5.97;;;27.80;95.80;;;;;;4955879;29;20485;-77
2022/08/26 10:11:17;;;;;;;12.67;5.60;;;27.10;96.30;;;;;;4962400;28;20473;-77
2022/08/26 10:13:48;;;;;;;10.47;5.43;;;26.60;96.30;;;;;;4976068;28;20461;-76
2022/08/26 10:16:28;;;;;;;13.70;5.07;;;26.20;96.30;;;;;;4976717;28;20417;-80
2022/08/26 10:19:08;;;;;;;14.83;6.60;;;26.30;96.30;;;;;;4957617;28;20504;-78
2022/08/26 10:21:40;;;;;;;10.77;4.90;;;26.10;96.30;;;;;;4991014;28;20436;-77
2022/08/26 10:24:07;;;;;;;14.10;5.80;;;26.10;96.30;;;;;;4990505;28;20455;-79
2022/08/26 10:27:04;;;;;;;9.30;5.87;;;26.00;96.30;;;;;;4993981;28;20411;-79
2022/08/26 10:29:44;;;;;;;17.13;5.80;;;25.90;96.30;;;;;;4994899;28;20728;-79
2022/08/26 10:32:34;;;;;;;16.53;6.50;;;25.80;96.30;;;;;;4994181;28;20428;-79
2022/08/26 10:35:05;;;;;;;21.13;6.63;;;25.80;96.30;;;;;;4994141;28;20448;-79
2022/08/26 10:37:35;;;;;;;14.10;5.30;;;25.70;96.30;;;;;;4994269;28;20463;-79
2022/08/26 10:40:17;;;;;;;22.93;6.27;;;25.60;96.30;;;;;;4992784;28;20401;-79
2022/08/26 10:42:50;;;;;;;15.30;6.67;;;25.60;96.30;;;;;;4974938;28;20413;-79
2022/08/26 10:45:20;;;;;;;18.57;6.60;;;25.30;96.30;;;;;;4974689;28;20413;-79
2022/08/26 10:48:07;;;;;;;19.43;5.50;;;25.20;96.30;;;;;;4974893;28;20406;-80
2022/08/26 10:50:39;;;;;;;13.13;6.33;;;25.00;96.30;;;;;;4974605;28;20456;-79
2022/08/26 10:53:16;;;;;;;36.07;6.23;;;24.90;96.30;;;;;;4975161;28;20480;-79
2022/08/26 10:55:49;;;;;;;14.53;6.13;;;24.80;96.30;;;;;;4969513;28;20408;-79
2022/08/26 10:58:30;;;;;;;14.30;5.90;;;24.80;96.30;;;;;;4953039;29;20822;-78
2022/08/26 11:04:12;;;;;;;15.87;6.40;;;24.30;96.30;;;;;;4959028;28;20805;-80
2022/08/26 11:06:38;;;;;;;12.03;6.60;;;24.10;96.30;;;;;;4960088;28;20426;-79
2022/08/26 11:09:07;;;;;;;11.50;6.10;;;23.90;96.30;;;;;;4955949;28;20445;-78
2022/08/26 11:11:39;;;;;;;15.83;6.20;;;23.90;96.30;;;;;;4972276;28;20233;-78
2022/08/26 11:14:15;;;;;;;17.00;6.90;;;23.80;96.30;;;;;;4967555;28;20449;-79
2022/08/26 11:16:45;;;;;;;23.23;7.53;;;23.60;96.30;;;;;;4967379;28;20413;-79
2022/08/26 11:19:29;;;;;;;14.00;6.30;;;23.50;96.30;;;;;;4959128;28;20418;-79
2022/08/26 11:22:22;;;;;;;14.80;6.50;;;23.40;96.30;;;;;;4956379;29;20434;-78
2022/08/26 11:24:54;;;;;;;19.77;6.97;;;23.40;96.30;;;;;;4956734;29;20414;-78
2022/08/26 11:27:23;;;;;;;15.80;6.50;;;23.30;96.30;;;;;;4960929;28;20422;-78
2022/08/26 11:30:01;;;;;;;15.10;6.80;;;23.20;96.30;;;;;;4973189;28;20480;-80
2022/08/26 11:32:33;;;;;;;12.93;5.77;;;23.20;96.30;;;;;;4963063;28;20434;-76
2022/08/26 11:35:01;;;;;;;11.87;5.60;;;23.30;96.30;;;;;;4968552;28;20492;-79
2022/08/26 11:37:34;;;;;;;11.70;5.40;;;23.30;96.30;;;;;;4969062;28;20921;-77
2022/08/26 11:40:03;;;;;;;8.00;4.57;;;23.10;96.30;;;;;;4972948;28;20402;-75
2022/08/26 11:42:32;;;;;;;13.47;5.73;;;22.80;96.30;;;;;;4956660;28;20466;-78
2022/08/26 11:44:58;;;;;;;10.13;5.67;;;22.80;96.30;;;;;;4960145;28;20529;-75
2022/08/26 11:47:28;;;;;;;12.37;5.23;;;22.90;96.30;;;;;;4963759;28;20418;-75
2022/08/26 11:50:18;;;;;;;8.00;4.63;;;23.10;96.30;;;;;;4954321;29;20410;-75
2022/08/26 11:53:00;;;;;;;8.53;4.60;;;23.30;96.30;;;;;;4954358;29;20923;-76
2022/08/26 11:55:27;;;;;;;11.20;4.67;;;23.70;96.30;;;;;;4954042;29;20446;-77
2022/08/26 11:57:56;;;;;;;12.03;4.80;;;24.20;96.30;;;;;;4953894;29;20406;-77
2022/08/26 12:00:29;;;;;;;14.27;5.80;;;24.80;96.30;;;;;;4953964;29;20790;-79
2022/08/26 12:02:57;;;;;;;17.93;6.87;;;25.20;96.30;;;;;;4954203;29;20961;-78
2022/08/26 12:05:33;;;;;;;13.30;6.43;;;25.30;96.30;;;;;;4954152;29;20423;-76
2022/08/26 12:08:05;;;;;;;23.87;6.07;;;25.50;96.30;;;;;;4936787;29;20917;-76
2022/08/26 12:10:32;;;;;;;10.60;5.53;;;25.70;96.30;;;;;;4954129;29;20420;-76
2022/08/26 12:12:59;;;;;;;14.50;6.10;;;25.70;96.30;;;;;;4954196;29;20492;-79
2022/08/26 12:15:28;;;;;;;10.40;5.53;;;25.90;96.30;;;;;;4954142;29;20484;-76
2022/08/26 12:17:53;;;;;;;8.70;5.80;;;25.80;96.30;;;;;;4954021;29;20875;-76
2022/08/26 12:20:45;;;;;;;9.17;5.63;;;25.90;96.30;;;;;;4953953;29;20449;-76
2022/08/26 12:23:33;;;;;;;12.57;5.50;;;25.90;96.30;;;;;;4954746;29;20159;-77
2022/08/26 12:26:21;;;;;;;11.63;5.63;;;26.20;96.30;;;;;;4948723;29;20507;-76
2022/08/26 12:28:58;;;;;;;15.47;5.60;;;26.40;96.30;;;;;;4955058;29;20395;-77
2022/08/26 12:31:35;;;;;;;11.53;4.40;;;26.60;96.30;;;;;;4955032;29;20524;-76
2022/08/26 12:34:04;;;;;;;6.80;4.70;;;26.50;96.30;;;;;;4937706;28;20457;-77
2022/08/26 12:36:36;;;;;;;9.03;5.43;;;26.50;96.30;;;;;;4954402;29;20497;-76
2022/08/26 12:39:11;;;;;;;8.13;5.00;;;26.50;96.30;;;;;;4954248;29;20477;-76
2022/08/26 12:41:40;;;;;;;10.10;5.30;;;26.50;96.30;;;;;;4941350;29;20444;-78
2022/08/26 12:44:05;;;;;;;6.80;4.17;;;26.60;96.30;;;;;;4946583;29;20441;-75
2022/08/26 12:46:31;;;;;;;7.30;4.00;;;27.10;96.30;;;;;;4954425;29;20906;-76
2022/08/26 12:49:00;;;;;;;11.10;4.67;;;27.40;96.30;;;;;;4966277;28;20186;-76
2022/08/26 12:51:31;;;;;;;9.87;4.27;;;27.40;96.30;;;;;;4973229;28;20252;-77
2022/08/26 12:53:57;;;;;;;4.20;3.80;;;27.40;96.30;;;;;;4973126;28;20463;-76
2022/08/26 12:56:34;;;;;;;9.77;4.53;;;27.00;96.30;;;;;;4973312;28;20414;-79
2022/08/26 12:59:19;;;;;;;9.37;4.40;;;26.70;96.30;;;;;;4957834;28;20496;-78
2022/08/26 13:01:47;;;;;;;7.97;3.30;;;26.50;96.30;;;;;;4957416;29;20978;-78
2022/08/26 13:04:37;;;;;;;4.63;2.37;;;26.20;96.30;;;;;;4957338;29;20449;-77
2022/08/26 13:07:25;;;;;;;2.47;1.90;;;25.70;96.30;;;;;;4957353;29;20505;-78
2022/08/26 13:09:53;;;;;;;3.47;1.83;;;25.30;96.30;;;;;;4967109;28;20480;-77
2022/08/26 13:12:25;;;;;;;4.27;2.63;;;25.10;96.30;;;;;;4976483;28;20441;-78
2022/08/26 13:14:51;;;;;;;3.33;2.30;;;24.90;96.30;;;;;;4976314;28;20551;-78
2022/08/26 13:17:16;;;;;;;4.73;2.60;;;24.60;96.30;;;;;;4976185;28;20500;-77
2022/08/26 13:19:42;;;;;;;6.53;3.23;;;24.50;96.30;;;;;;4975970;28;20206;-77
2022/08/26 13:22:11;;;;;;;3.33;2.50;;;24.30;96.30;;;;;;4976177;28;20233;-77
2022/08/26 13:24:42;;;;;;;12.07;3.60;;;24.30;96.30;;;;;;4976150;28;20178;-78
2022/08/26 13:27:10;;;;;;;6.17;3.20;;;23.90;96.30;;;;;;4976244;28;20513;-77
2022/08/26 13:29:36;;;;;;;5.07;2.87;;;23.70;96.30;;;;;;4975918;28;20418;-77
2022/08/26 13:32:03;;;;;;;17.17;4.10;;;23.50;96.30;;;;;;4976068;28;20971;-77
2022/08/26 13:34:29;;;;;;;4.93;4.27;;;23.50;96.30;;;;;;4975984;28;20206;-78
2022/08/26 13:36:55;;;;;;;9.03;4.80;;;23.50;96.30;;;;;;4958632;28;20425;-77
2022/08/26 13:39:22;;;;;;;7.20;4.10;;;23.30;96.30;;;;;;4975861;28;20174;-77
2022/08/26 13:41:48;;;;;;;8.00;4.30;;;23.00;96.30;;;;;;4962476;28;20526;-77
2022/08/26 13:44:13;;;;;;;11.03;4.07;;;23.10;96.30;;;;;;4957293;28;20430;-77
2022/08/26 13:46:39;;;;;;;6.53;4.13;;;23.10;96.30;;;;;;4956443;29;20422;-77
2022/08/26 13:49:05;;;;;;;7.87;3.90;;;23.10;96.30;;;;;;4956209;29;20258;-77
2022/08/26 13:51:31;;;;;;;8.37;4.60;;;23.10;96.30;;;;;;4956456;29;20194;-77
2022/08/26 13:53:57;;;;;;;11.07;4.40;;;23.00;96.30;;;;;;4956361;29;20281;-77
2022/08/26 13:56:26;;;;;;;7.00;4.13;;;22.90;96.30;;;;;;4939087;29;20422;-77
2022/08/26 13:58:51;;;;;;;10.20;4.63;;;22.60;96.30;;;;;;4956192;29;20478;-78
2022/08/26 14:01:17;;;;;;;16.43;4.73;;;22.40;96.30;;;;;;4956088;29;20454;-79
2022/08/26 14:03:43;;;;;;;11.67;5.27;;;22.40;96.30;;;;;;4970396;28;20271;-81
2022/08/26 14:06:09;;;;;;;7.00;4.50;;;22.30;96.30;;;;;;4963114;28;20480;-80
2022/08/26 14:08:36;;;;;;;10.27;4.43;;;22.30;96.30;;;;;;4940073;29;20207;-80
2022/08/26 14:11:02;;;;;;;12.20;5.20;;;22.10;96.30;;;;;;4958590;29;20195;-80
2022/08/26 14:13:27;;;;;;;5.70;4.03;;;22.10;96.30;;;;;;4956923;29;20854;-78
2022/08/26 14:15:52;;;;;;;11.80;4.90;;;22.00;96.30;;;;;;4957782;29;20179;-79
2022/08/26 14:18:25;;;;;;;8.53;4.17;;;21.80;96.30;;;;;;4940360;29;20187;-78
2022/08/26 14:20:51;;;;;;;7.70;5.07;;;21.80;96.30;;;;;;4958488;29;20202;-78
2022/08/26 14:23:18;;;;;;;6.97;4.80;;;21.70;96.30;;;;;;4958813;29;20473;-79
2022/08/26 14:25:44;;;;;;;9.00;4.20;;;21.70;96.30;;;;;;4958896;29;20163;-79
2022/08/26 14:28:10;;;;;;;4.50;3.70;;;21.60;96.30;;;;;;4958560;29;20414;-78
2022/08/26 14:30:39;;;;;;;6.20;4.77;;;21.40;96.30;;;;;;4958843;29;20270;-79
2022/08/26 14:33:05;;;;;;;9.30;4.27;;;21.30;96.30;;;;;;4961131;29;20473;-79
2022/08/26 14:35:30;;;;;;;8.23;4.20;;;21.20;96.30;;;;;;4966069;28;21037;-82
2022/08/26 14:37:56;;;;;;;7.57;5.00;;;21.20;96.30;;;;;;4948043;29;20207;-82
2022/08/26 14:40:24;;;;;;;4.23;3.60;;;21.30;96.30;;;;;;4962576;28;20197;-82
2022/08/26 14:42:53;;;;;;;6.33;4.33;;;21.50;96.30;;;;;;4976156;28;20428;-82
2022/08/26 14:45:22;;;;;;;12.97;4.80;;;21.50;96.30;;;;;;4956515;28;20944;-82
2022/08/26 14:47:48;;;;;;;15.80;6.00;;;21.50;96.30;;;;;;4939085;29;20981;-81
2022/08/26 14:50:17;;;;;;;13.60;4.87;;;21.70;96.30;;;;;;4957272;29;20427;-82
2022/08/26 14:55:29;;;;;;;7.53;4.50;;;21.90;96.30;;;;;;4957588;29;20501;-82
2022/08/26 14:57:54;;;;;;;6.13;5.03;;;21.90;96.30;;;;;;4941684;29;20919;-82
2022/08/26 15:00:20;;;;;;;7.17;5.17;;;21.90;96.30;;;;;;4971721;28;20432;-78
2022/08/26 15:02:46;;;;;;;7.53;5.80;;;21.90;96.30;;;;;;4977690;28;20190;-78
2022/08/26 15:05:12;;;;;;;8.23;5.27;;;21.90;96.30;;;;;;4966999;28;20189;-79
2022/08/26 15:07:38;;;;;;;8.00;5.20;;;21.90;96.30;;;;;;4969175;28;20195;-80
2022/08/26 15:10:06;;;;;;;7.93;4.90;;;21.90;96.30;;;;;;4972934;28;20901;-80
2022/08/26 15:12:32;;;;;;;7.17;5.13;;;22.10;96.30;;;;;;4956324;28;20474;-77
2022/08/26 15:14:57;;;;;;;10.07;5.40;;;22.20;96.30;;;;;;4965677;28;20512;-77
2022/08/26 15:17:23;;;;;;;6.40;5.07;;;22.10;96.30;;;;;;4955166;28;20226;-77
2022/08/26 15:19:48;;;;;;;6.17;5.43;;;21.90;96.30;;;;;;4937496;29;20620;-78
2022/08/26 15:22:14;;;;;;;6.93;5.80;;;22.00;96.30;;;;;;4938222;28;20657;-77
2022/08/26 15:24:40;;;;;;;9.00;6.63;;;22.20;96.30;;;;;;4956903;28;20181;-77
2022/08/26 15:27:05;;;;;;;9.07;6.37;;;22.20;96.30;;;;;;4974042;28;20530;-77
2022/08/26 15:29:31;;;;;;;12.17;6.40;;;22.30;96.30;;;;;;4956519;28;20186;-77
2022/08/26 15:31:57;;;;;;;11.27;5.97;;;22.40;96.30;;;;;;4973870;28;20729;-77
2022/08/26 15:34:23;;;;;;;9.93;6.00;;;22.20;96.30;;;;;;4973427;28;20460;-77
2022/08/26 15:36:48;;;;;;;9.50;6.30;;;22.20;96.30;;;;;;4973662;28;20209;-76
2022/08/26 15:39:16;;;;;;;13.20;5.40;;;22.30;96.30;;;;;;4970421;28;20186;-76
2022/08/26 15:41:41;;;;;;;10.07;6.00;;;22.30;96.30;;;;;;4968048;28;20205;-76
2022/08/26 15:44:08;;;;;;;6.33;5.27;;;22.20;96.30;;;;;;4973726;28;20414;-77
2022/08/26 15:46:34;;;;;;;7.20;5.37;;;22.10;96.30;;;;;;4973692;28;20229;-76
2022/08/26 15:49:00;;;;;;;11.30;5.10;;;21.90;96.30;;;;;;4956085;28;20461;-76
2022/08/26 15:51:29;;;;;;;6.17;4.67;;;21.90;96.30;;;;;;4973342;28;20686;-76
2022/08/26 15:53:57;;;;;;;10.87;5.03;;;21.70;96.30;;;;;;4947145;28;20481;-76
2022/08/26 15:56:25;;;;;;;6.20;5.23;;;21.50;96.30;;;;;;4959747;28;20423;-77
2022/08/26 15:58:52;;;;;;;13.33;6.60;;;21.60;96.30;;;;;;4954063;29;20419;-77
2022/08/26 16:01:18;;;;;;;6.83;5.80;;;21.60;96.30;;;;;;4954009;29;20525;-77
2022/08/26 16:03:45;;;;;;;7.90;5.27;;;21.50;96.30;;;;;;4953949;28;20431;-77
2022/08/26 16:06:13;;;;;;;6.97;5.70;;;21.40;96.30;;;;;;4963651;28;20182;-78
2022/08/26 16:08:38;;;;;;;8.30;5.40;;;21.50;96.30;;;;;;4971455;28;20437;-79
2022/08/26 16:11:04;;;;;;;9.40;6.07;;;21.50;96.30;;;;;;4953247;29;20465;-75
2022/08/26 16:13:30;;;;;;;10.00;6.53;;;21.40;96.30;;;;;;4957700;28;20256;-79
2022/08/26 16:15:59;;;;;;;13.30;11.90;;;21.30;96.30;;;;;;4955872;28;20543;-79
2022/08/26 16:18:24;;;;;;;7.27;6.10;;;21.10;96.30;;;;;;4971590;28;20323;-79
2022/08/26 16:20:52;;;;;;;8.40;5.50;;;21.00;96.30;;;;;;4964923;28;20498;-80
2022/08/26 16:23:18;;;;;;;7.37;6.63;;;21.00;96.30;;;;;;4974356;28;20441;-79
2022/08/26 16:25:44;;;;;;;9.80;6.10;;;20.90;96.30;;;;;;4945975;29;20423;-79
2022/08/26 16:28:12;;;;;;;6.80;5.83;;;20.90;96.30;;;;;;4962177;28;20423;-79
2022/08/26 16:30:37;;;;;;;6.80;5.77;;;20.90;96.30;;;;;;4965433;28;20264;-79
2022/08/26 16:33:03;;;;;;;9.40;7.87;;;20.90;96.30;;;;;;4965138;28;20901;-80
2022/08/26 16:35:29;;;;;;;6.63;6.03;;;21.00;96.30;;;;;;4965807;28;20290;-80
2022/08/26 16:37:55;;;;;;;10.10;7.87;;;21.00;96.30;;;;;;4951087;29;20175;-80
2022/08/26 16:40:21;;;;;;;14.60;7.80;;;21.10;96.30;;;;;;4965160;28;20676;-80
2022/08/26 16:42:47;;;;;;;10.20;8.00;;;21.20;96.30;;;;;;4976923;28;20412;-79
2022/08/26 16:45:12;;;;;;;7.73;6.63;;;21.30;96.30;;;;;;4976804;28;20413;-79
2022/08/26 16:47:38;;;;;;;7.63;5.80;;;21.40;96.30;;;;;;4976821;28;20269;-78
2022/08/26 16:50:05;;;;;;;8.00;5.90;;;21.40;96.30;;;;;;4975967;28;20178;-78
2022/08/26 16:52:31;;;;;;;10.33;5.80;;;21.40;96.30;;;;;;4976363;28;20256;-78
2022/08/26 16:54:57;;;;;;;6.80;6.10;;;21.30;96.30;;;;;;4976684;28;20453;-79
2022/08/26 16:57:23;;;;;;;7.43;5.93;;;21.10;96.30;;;;;;4976671;28;20513;-79
2022/08/26 16:59:48;;;;;;;13.20;6.00;;;21.20;96.30;;;;;;4977072;28;20241;-79
2022/08/26 17:02:14;;;;;;;6.87;5.37;;;21.10;96.30;;;;;;4960285;28;20202;-79
2022/08/26 17:04:40;;;;;;;7.50;5.83;;;21.00;96.30;;;;;;4977880;28;20253;-80
2022/08/26 17:07:05;;;;;;;7.07;5.53;;;21.00;96.30;;;;;;4977798;28;20257;-79
2022/08/26 17:09:31;;;;;;;10.00;6.07;;;20.90;96.30;;;;;;4967568;28;20750;-79
2022/08/26 17:11:57;;;;;;;11.27;6.20;;;20.80;96.30;;;;;;4956972;29;20572;-79
2022/08/26 17:14:23;;;;;;;9.00;5.63;;;20.80;96.30;;;;;;4957106;29;20213;-79
2022/08/26 17:16:52;;;;;;;10.40;5.90;;;20.70;96.30;;;;;;4957053;29;20182;-77
2022/08/26 17:19:19;;;;;;;10.53;6.27;;;20.60;96.30;;;;;;4957947;29;20199;-78
2022/08/26 17:21:45;;;;;;;9.20;6.20;;;20.60;96.30;;;;;;4957954;28;20483;-79
2022/08/26 17:24:12;;;;;;;12.17;5.80;;;20.70;96.30;;;;;;4957266;28;20446;-80
2022/08/26 17:26:38;;;;;;;11.37;6.70;;;20.70;96.30;;;;;;4967037;28;20890;-79
2022/08/26 17:29:06;;;;;;;7.70;5.93;;;20.60;96.30;;;;;;4962404;28;20464;-81
2022/08/26 17:31:31;;;;;;;8.33;6.03;;;20.50;96.30;;;;;;4947467;28;20259;-79